createdAt,value
2019-05-02T00:00:57.974Z,11.10
2019-05-02T00:03:29.648Z,11.20
2019-05-02T00:06:02.955Z,11.20
2019-05-02T00:08:33.181Z,11.30
2019-05-02T00:11:05.607Z,11.40
2019-05-02T00:13:35.765Z,11.30
2019-05-02T00:16:09.191Z,11.30
2019-05-02T00:18:39.057Z,11.20
2019-05-02T00:21:09.475Z,11.10
2019-05-02T00:23:39.781Z,11.10
2019-05-02T00:26:10.207Z,11.30
2019-05-02T00:28:43.021Z,11.30
2019-05-02T00:31:12.869Z,11.30
2019-05-02T00:33:42.995Z,11.40
2019-05-02T00:36:13.231Z,11.30
2019-05-02T00:38:46.401Z,11.10
2019-05-02T00:41:16.641Z,11.10
2019-05-02T00:43:46.801Z,11.20
2019-05-02T00:46:17.873Z,11.20
2019-05-02T00:48:54.072Z,11.10
2019-05-02T00:51:26.767Z,11.00
2019-05-02T00:53:55.924Z,10.90
2019-05-02T00:56:26.102Z,10.90
2019-05-02T00:58:56.311Z,10.80
2019-05-02T01:01:29.590Z,10.80
2019-05-02T01:04:04.205Z,10.80
2019-05-02T01:06:34.446Z,10.70
2019-05-02T01:09:10.963Z,10.80
2019-05-02T01:11:39.074Z,11.00
2019-05-02T01:14:09.216Z,10.90
2019-05-02T01:16:39.370Z,10.80
2019-05-02T01:19:12.095Z,10.80
2019-05-02T01:21:41.462Z,10.80
2019-05-02T01:24:11.755Z,10.70
2019-05-02T01:26:43.553Z,10.70
2019-05-02T01:29:15.348Z,10.80
2019-05-02T01:32:01.938Z,10.70
2019-05-02T01:34:42.430Z,10.60
2019-05-02T01:37:23.434Z,10.50
2019-05-02T01:39:53.615Z,10.40
2019-05-02T01:42:23.766Z,10.30
2019-05-02T01:44:54.091Z,10.30
2019-05-02T01:47:24.245Z,10.30
2019-05-02T01:49:57.316Z,10.70
2019-05-02T01:52:27.177Z,10.60
2019-05-02T01:54:57.480Z,10.50
2019-05-02T01:57:27.715Z,10.30
2019-05-02T01:59:58.952Z,10.10
2019-05-02T02:02:32.755Z,10.00
2019-05-02T02:05:00.892Z,9.90
2019-05-02T02:07:31.145Z,9.80
2019-05-02T02:10:01.218Z,9.80
2019-05-02T02:12:31.723Z,9.90
2019-05-02T02:15:01.906Z,9.80
2019-05-02T02:17:33.867Z,9.70
2019-05-02T02:20:09.738Z,9.70
2019-05-02T02:22:51.025Z,9.70
2019-05-02T02:25:38.302Z,9.80
2019-05-02T02:28:08.617Z,9.70
2019-05-02T02:30:38.938Z,9.60
2019-05-02T02:33:09.858Z,9.40
2019-05-02T02:35:49.430Z,9.40
2019-05-02T02:38:12.027Z,9.40
2019-05-02T02:40:45.105Z,9.50
2019-05-02T02:43:32.954Z,9.40
2019-05-02T02:45:51.767Z,9.20
2019-05-02T02:48:21.790Z,9.20
2019-05-02T02:50:51.878Z,9.10
2019-05-02T02:53:30.716Z,9.00
2019-05-02T02:56:06.725Z,9.10
2019-05-02T02:58:45.657Z,9.00
2019-05-02T03:01:09.006Z,9.30
2019-05-02T03:03:39.252Z,9.30
2019-05-02T03:06:09.443Z,9.10
2019-05-02T03:08:46.307Z,9.00
2019-05-02T03:11:22.388Z,9.00
2019-05-02T03:13:52.511Z,8.90
2019-05-02T03:16:22.755Z,8.80
2019-05-02T03:18:53.006Z,8.80
2019-05-02T03:21:23.156Z,8.80
2019-05-02T03:24:01.549Z,8.80
2019-05-02T03:26:25.182Z,8.70
2019-05-02T03:28:58.683Z,8.70
2019-05-02T03:31:30.350Z,8.60
2019-05-02T03:34:00.468Z,8.50
2019-05-02T03:36:36.433Z,8.50
2019-05-02T03:39:13.428Z,8.50
2019-05-02T03:41:36.070Z,8.50
2019-05-02T03:44:11.114Z,8.50
2019-05-02T03:46:40.019Z,8.50
2019-05-02T03:49:10.201Z,8.50
2019-05-02T03:51:40.486Z,8.50
2019-05-02T03:54:10.712Z,8.50
2019-05-02T03:56:44.772Z,8.60
2019-05-02T03:59:12.664Z,8.60
2019-05-02T04:01:43.223Z,8.60
2019-05-02T04:04:14.098Z,8.70
2019-05-02T04:06:45.215Z,8.70
2019-05-02T04:09:42.097Z,8.80
2019-05-02T04:12:11.414Z,8.80
2019-05-02T04:14:39.766Z,9.10
2019-05-02T04:17:11.210Z,9.20
2019-05-02T04:19:41.407Z,9.20
2019-05-02T04:22:12.338Z,9.20
2019-05-02T04:24:51.628Z,9.50
2019-05-02T04:27:14.548Z,9.60
2019-05-02T04:29:44.751Z,9.60
2019-05-02T04:32:14.945Z,9.70
2019-05-02T04:34:48.957Z,9.90
2019-05-02T04:37:16.939Z,10.10
2019-05-02T04:39:49.088Z,10.20
2019-05-02T04:42:22.879Z,10.30
2019-05-02T04:45:11.633Z,10.40
2019-05-02T04:47:22.522Z,10.50
2019-05-02T04:49:52.824Z,10.70
2019-05-02T04:52:23.008Z,10.70
2019-05-02T04:54:53.166Z,10.80
2019-05-02T04:57:27.184Z,11.10
2019-05-02T05:00:02.459Z,11.30
2019-05-02T05:02:34.640Z,11.60
2019-05-02T05:04:58.746Z,12.30
2019-05-02T05:07:31.220Z,13.40
2019-05-02T05:10:02.988Z,14.70
2019-05-02T05:12:37.407Z,15.70
2019-05-02T05:15:07.840Z,15.80
2019-05-02T05:17:37.806Z,16.20
2019-05-02T05:20:14.079Z,15.80
2019-05-02T05:22:44.286Z,16.50
2019-05-02T05:25:17.760Z,17.10
2019-05-02T05:27:47.877Z,17.40
2019-05-02T05:30:18.729Z,18.10
2019-05-02T05:32:49.016Z,18.60
2019-05-02T05:35:19.208Z,18.50
2019-05-02T05:37:53.030Z,18.00
2019-05-02T05:40:22.698Z,18.20
2019-05-02T05:42:53.047Z,16.90
2019-05-02T05:45:23.295Z,15.60
2019-05-02T05:47:57.591Z,15.20
2019-05-02T05:50:27.482Z,15.10
2019-05-02T05:52:59.297Z,15.00
2019-05-02T05:55:31.542Z,15.10
2019-05-02T05:58:11.821Z,15.20
2019-05-02T06:00:32.446Z,15.60
2019-05-02T06:03:13.169Z,15.40
2019-05-02T06:05:38.454Z,15.50
2019-05-02T06:08:08.556Z,15.90
2019-05-02T06:10:43.926Z,15.80
2019-05-02T06:13:12.971Z,15.60
2019-05-02T06:15:45.840Z,15.40
2019-05-02T06:18:14.933Z,15.70
2019-05-02T06:20:45.129Z,16.00
2019-05-02T06:23:15.374Z,16.20
2019-05-02T06:25:45.616Z,16.00
2019-05-02T06:28:15.784Z,16.00
2019-05-02T06:30:45.951Z,15.90
2019-05-02T06:33:16.277Z,15.80
2019-05-02T06:35:46.507Z,15.70
2019-05-02T06:38:21.606Z,16.10
2019-05-02T06:40:48.782Z,16.30
2019-05-02T06:43:19.015Z,16.50
2019-05-02T06:45:49.180Z,16.70
2019-05-02T06:48:19.345Z,16.90
2019-05-02T06:50:49.641Z,16.50
2019-05-02T06:53:19.792Z,16.60
2019-05-02T06:55:50.029Z,16.80
2019-05-02T06:58:20.271Z,16.50
2019-05-02T07:00:58.202Z,16.70
2019-05-02T07:03:22.295Z,16.90
2019-05-02T07:05:52.490Z,16.90
2019-05-02T07:08:22.567Z,17.20
2019-05-02T07:10:55.884Z,17.30
2019-05-02T07:13:24.723Z,17.40
2019-05-02T07:15:56.549Z,17.40
2019-05-02T07:18:28.291Z,17.20
2019-05-02T07:20:58.439Z,17.10
2019-05-02T07:23:28.532Z,17.20
2019-05-02T07:26:00.458Z,17.20
2019-05-02T07:28:30.531Z,17.10
2019-05-02T07:31:00.941Z,17.40
2019-05-02T07:33:32.193Z,17.20
2019-05-02T07:36:03.037Z,17.50
2019-05-02T07:38:33.209Z,17.60
2019-05-02T07:41:03.457Z,17.50
2019-05-02T07:43:36.645Z,17.40
2019-05-02T07:46:06.949Z,17.70
2019-05-02T07:48:37.059Z,17.90
2019-05-02T07:51:07.293Z,17.90
2019-05-02T07:53:37.470Z,17.90
2019-05-02T07:56:07.691Z,17.80
2019-05-02T07:58:44.233Z,18.00
2019-05-02T08:01:13.454Z,18.40
2019-05-02T08:03:41.590Z,18.50
2019-05-02T08:06:11.819Z,18.60
2019-05-02T08:08:42.146Z,18.70
2019-05-02T08:11:12.458Z,18.50
2019-05-02T08:13:42.634Z,18.60
2019-05-02T08:16:12.846Z,18.80
2019-05-02T08:18:43.014Z,19.10
2019-05-02T08:21:13.176Z,18.90
2019-05-02T08:23:43.420Z,18.90
2019-05-02T08:26:16.314Z,19.20
2019-05-02T08:28:53.272Z,19.10
2019-05-02T08:31:23.558Z,18.70
2019-05-02T08:33:53.811Z,18.60
2019-05-02T08:36:23.977Z,18.80
2019-05-02T08:38:55.479Z,18.90
2019-05-02T08:41:25.773Z,18.70
2019-05-02T08:43:56.004Z,18.70
2019-05-02T08:46:26.167Z,19.20
2019-05-02T08:48:56.339Z,19.30
2019-05-02T08:51:26.582Z,19.20
2019-05-02T08:53:58.422Z,19.00
2019-05-02T08:56:28.602Z,19.30
2019-05-02T08:58:58.831Z,19.70
2019-05-02T09:01:35.161Z,19.50
2019-05-02T09:04:00.741Z,19.70
2019-05-02T09:06:30.902Z,19.80
2019-05-02T09:09:01.136Z,20.00
2019-05-02T09:11:32.810Z,20.00
2019-05-02T09:14:03.059Z,20.20
2019-05-02T09:16:33.234Z,20.00
2019-05-02T09:19:03.480Z,20.10
2019-05-02T09:21:35.936Z,20.10
2019-05-02T09:24:08.460Z,19.90
2019-05-02T09:26:38.756Z,20.10
2019-05-02T09:29:10.079Z,20.20
2019-05-02T09:31:42.227Z,20.10
2019-05-02T09:34:12.174Z,20.20
2019-05-02T09:36:42.407Z,20.40
2019-05-02T09:39:12.630Z,20.50
2019-05-02T09:41:42.761Z,20.30
2019-05-02T09:44:14.601Z,20.60
2019-05-02T09:46:47.500Z,20.70
2019-05-02T09:49:16.677Z,20.70
2019-05-02T09:51:50.315Z,20.70
2019-05-02T09:54:18.715Z,20.70
2019-05-02T09:56:48.907Z,20.80
2019-05-02T09:59:27.694Z,20.90
2019-05-02T10:01:52.785Z,20.70
2019-05-02T10:04:22.971Z,20.70
2019-05-02T10:06:53.227Z,20.90
2019-05-02T10:09:27.131Z,21.00
2019-05-02T10:11:55.468Z,21.10
2019-05-02T10:14:25.733Z,21.30
2019-05-02T10:16:57.643Z,21.20
2019-05-02T10:19:27.769Z,21.30
2019-05-02T10:21:57.975Z,21.50
2019-05-02T10:24:28.082Z,21.50
2019-05-02T10:27:04.014Z,21.10
2019-05-02T10:29:32.691Z,21.30
2019-05-02T10:32:01.927Z,21.60
2019-05-02T10:34:32.982Z,21.50
2019-05-02T10:37:03.410Z,21.50
2019-05-02T10:39:37.698Z,21.50
2019-05-02T10:42:05.413Z,21.30
2019-05-02T10:44:36.578Z,21.50
2019-05-02T10:47:07.043Z,21.50
2019-05-02T10:49:38.844Z,21.50
2019-05-02T10:52:09.069Z,21.30
2019-05-02T10:54:42.047Z,20.90
2019-05-02T10:57:13.243Z,21.30
2019-05-02T10:59:43.412Z,21.10
2019-05-02T11:02:24.183Z,21.40
2019-05-02T11:04:56.070Z,21.70
2019-05-02T11:07:26.559Z,21.80
2019-05-02T11:10:03.114Z,21.70
2019-05-02T11:12:43.441Z,21.30
2019-05-02T11:15:07.833Z,21.70
2019-05-02T11:17:39.552Z,21.70
2019-05-02T11:20:12.388Z,22.00
2019-05-02T11:22:42.808Z,22.30
2019-05-02T11:25:13.254Z,22.40
2019-05-02T11:27:43.418Z,22.30
2019-05-02T11:30:16.897Z,22.40
2019-05-02T11:32:45.631Z,22.10
2019-05-02T11:35:15.906Z,22.20
2019-05-02T11:37:46.051Z,22.10
2019-05-02T11:40:16.392Z,22.40
2019-05-02T11:42:47.832Z,22.70
2019-05-02T11:45:17.974Z,22.70
2019-05-02T11:47:48.170Z,22.80
2019-05-02T11:50:18.450Z,22.60
2019-05-02T11:52:48.684Z,22.50
2019-05-02T11:55:23.363Z,22.90
2019-05-02T11:57:52.368Z,23.10
2019-05-02T12:00:22.686Z,23.00
2019-05-02T12:03:09.165Z,23.30
2019-05-02T12:05:41.968Z,23.40
2019-05-02T12:08:12.428Z,23.30
2019-05-02T12:10:42.670Z,23.50
2019-05-02T12:13:16.046Z,23.20
2019-05-02T12:15:44.863Z,23.50
2019-05-02T12:18:14.942Z,24.00
2019-05-02T12:20:45.235Z,24.00
2019-05-02T12:23:16.462Z,23.60
2019-05-02T12:25:46.775Z,23.50
2019-05-02T12:28:17.039Z,23.30
2019-05-02T12:30:47.449Z,23.40
2019-05-02T12:33:18.758Z,23.90
2019-05-02T12:35:48.974Z,24.00
2019-05-02T12:38:19.187Z,23.70
2019-05-02T12:40:49.420Z,23.80
2019-05-02T12:43:19.514Z,24.00
2019-05-02T12:45:49.631Z,24.00
2019-05-02T12:48:21.780Z,23.80
2019-05-02T12:50:52.745Z,24.10
2019-05-02T12:53:23.211Z,24.40
2019-05-02T12:55:53.443Z,24.00
2019-05-02T12:58:23.800Z,24.10
2019-05-02T13:00:54.251Z,24.10
2019-05-02T13:03:37.982Z,24.30
2019-05-02T13:06:08.184Z,24.60
2019-05-02T13:08:52.098Z,25.30
2019-05-02T13:11:45.717Z,25.20
2019-05-02T13:14:19.479Z,25.00
2019-05-02T13:16:47.863Z,24.80
2019-05-02T13:19:18.102Z,25.20
2019-05-02T13:21:54.692Z,25.30
2019-05-02T13:24:35.497Z,25.00
2019-05-02T13:27:07.735Z,24.50
2019-05-02T13:29:38.155Z,24.50
2019-05-02T13:32:16.960Z,24.40
2019-05-02T13:34:48.706Z,24.30
2019-05-02T13:37:19.403Z,24.60
2019-05-02T13:40:07.091Z,24.80
2019-05-02T13:42:37.328Z,25.10
2019-05-02T13:45:16.228Z,25.00
2019-05-02T13:47:46.455Z,24.90
2019-05-02T13:50:17.003Z,25.20
2019-05-02T13:52:53.159Z,24.90
2019-05-02T13:55:20.794Z,25.20
2019-05-02T13:57:52.839Z,24.90
2019-05-02T14:00:27.429Z,24.60
2019-05-02T14:02:57.565Z,24.60
2019-05-02T14:05:27.791Z,24.80
2019-05-02T14:08:15.503Z,24.50
2019-05-02T14:10:50.014Z,24.70
2019-05-02T14:13:22.060Z,25.20
2019-05-02T14:15:53.069Z,25.30
2019-05-02T14:18:28.678Z,25.40
2019-05-02T14:20:55.147Z,25.20
2019-05-02T14:23:27.176Z,24.80
2019-05-02T14:25:57.253Z,24.50
2019-05-02T14:28:32.336Z,24.00
2019-05-02T14:30:59.103Z,24.30
2019-05-02T14:33:33.034Z,24.00
2019-05-02T14:36:03.410Z,24.00
2019-05-02T14:38:33.792Z,24.50
2019-05-02T14:41:05.744Z,24.30
2019-05-02T14:43:53.273Z,24.00
2019-05-02T14:46:28.806Z,23.30
2019-05-02T14:48:58.024Z,23.50
2019-05-02T14:51:28.359Z,23.50
2019-05-02T14:54:06.123Z,23.60
2019-05-02T14:56:32.874Z,24.20
2019-05-02T14:59:03.408Z,25.00
2019-05-02T15:01:34.808Z,25.50
2019-05-02T15:04:08.261Z,25.00
2019-05-02T15:06:38.438Z,25.40
2019-05-02T15:09:12.084Z,25.80
2019-05-02T15:11:46.010Z,25.40
2019-05-02T15:14:19.719Z,25.40
2019-05-02T15:16:49.783Z,25.00
2019-05-02T15:19:21.786Z,24.50
2019-05-02T15:21:56.001Z,24.30
2019-05-02T15:24:27.631Z,24.20
2019-05-02T15:26:56.974Z,23.80
2019-05-02T15:29:27.497Z,23.50
2019-05-02T15:32:05.808Z,23.80
2019-05-02T15:34:52.479Z,24.30
2019-05-02T15:37:25.740Z,24.20
2019-05-02T15:42:26.712Z,23.70
2019-05-02T15:45:02.178Z,24.40
2019-05-02T15:47:31.927Z,24.80
2019-05-02T15:50:03.005Z,24.50
2019-05-02T15:52:38.791Z,23.80
2019-05-02T15:55:11.491Z,23.50
2019-05-02T15:57:45.487Z,23.30
2019-05-02T16:00:22.983Z,23.10
2019-05-02T16:02:51.706Z,23.50
2019-05-02T16:05:23.822Z,23.50
2019-05-02T16:08:05.322Z,23.10
2019-05-02T16:10:25.637Z,23.20
2019-05-02T16:12:56.060Z,23.00
2019-05-02T16:15:27.975Z,23.30
2019-05-02T16:18:03.893Z,23.90
2019-05-02T16:20:40.669Z,24.10
2019-05-02T16:23:09.472Z,24.40
2019-05-02T16:25:39.818Z,24.00
2019-05-02T16:28:12.705Z,24.70
2019-05-02T16:30:47.631Z,26.80
2019-05-02T16:33:19.663Z,27.50
2019-05-02T16:35:52.821Z,27.70
2019-05-02T16:38:22.229Z,27.10
2019-05-02T16:40:52.760Z,25.50
2019-05-02T16:43:24.831Z,24.20
2019-05-02T16:45:56.154Z,23.40
2019-05-02T16:48:32.351Z,22.50
2019-05-02T16:50:59.231Z,22.00
2019-05-02T16:53:31.051Z,21.60
2019-05-02T16:56:05.517Z,21.40
2019-05-02T16:58:33.705Z,21.30
2019-05-02T17:01:05.068Z,21.70
2019-05-02T17:03:35.385Z,22.30
2019-05-02T17:06:05.748Z,23.90
2019-05-02T17:08:41.870Z,24.80
2019-05-02T17:11:22.878Z,25.00
2019-05-02T17:13:53.225Z,24.90
2019-05-02T17:16:23.434Z,24.90
2019-05-02T17:18:56.531Z,25.60
2019-05-02T17:21:26.883Z,24.60
2019-05-02T17:23:57.468Z,23.50
2019-05-02T17:26:27.631Z,22.70
2019-05-02T17:28:57.866Z,21.40
2019-05-02T17:31:28.047Z,20.60
2019-05-02T17:33:59.739Z,20.10
2019-05-02T17:36:30.611Z,19.80
2019-05-02T17:39:06.436Z,19.50
2019-05-02T17:41:37.061Z,19.30
2019-05-02T17:44:07.215Z,19.10
2019-05-02T17:46:39.290Z,18.90
2019-05-02T17:49:09.259Z,18.80
2019-05-02T17:51:49.676Z,18.60
2019-05-02T17:54:22.726Z,18.50
2019-05-02T17:56:52.291Z,18.30
2019-05-02T17:59:23.557Z,18.30
2019-05-02T18:01:53.859Z,18.10
2019-05-02T18:04:24.088Z,18.00
2019-05-02T18:06:55.258Z,17.90
2019-05-02T18:09:26.283Z,17.80
2019-05-02T18:11:57.922Z,17.60
2019-05-02T18:14:28.180Z,17.50
2019-05-02T18:16:58.383Z,17.40
2019-05-02T18:19:28.566Z,17.30
2019-05-02T18:22:03.546Z,17.30
2019-05-02T18:24:32.690Z,17.20
2019-05-02T18:27:02.588Z,17.20
2019-05-02T18:29:36.351Z,17.10
2019-05-02T18:32:04.583Z,17.10
2019-05-02T18:34:34.777Z,17.00
2019-05-02T18:37:06.260Z,16.80
2019-05-02T18:39:45.490Z,16.70
2019-05-02T18:42:08.479Z,16.60
2019-05-02T18:44:38.742Z,16.50
2019-05-02T18:47:12.474Z,16.40
2019-05-02T18:49:41.858Z,16.30
2019-05-02T18:52:13.296Z,16.20
2019-05-02T18:54:47.284Z,16.20
2019-05-02T18:57:17.050Z,16.20
2019-05-02T18:59:47.170Z,16.10
2019-05-02T19:02:18.341Z,16.00
2019-05-02T19:04:48.689Z,16.00
2019-05-02T19:07:29.907Z,16.00
2019-05-02T19:09:51.888Z,15.90
2019-05-02T19:12:26.041Z,15.90
2019-05-02T19:14:57.564Z,15.90
2019-05-02T19:17:27.671Z,16.00
2019-05-02T19:19:57.976Z,16.00
2019-05-02T19:22:28.185Z,16.10
2019-05-02T19:25:01.099Z,16.10
2019-05-02T19:27:47.714Z,16.10
2019-05-02T19:30:18.887Z,16.20
2019-05-02T19:32:49.161Z,16.20
2019-05-02T19:35:19.358Z,16.30
2019-05-02T19:37:49.640Z,16.30
2019-05-02T19:40:26.890Z,16.30
2019-05-02T19:42:57.252Z,16.30
2019-05-02T19:45:26.613Z,16.30
2019-05-02T19:47:57.792Z,16.20
2019-05-02T19:50:38.524Z,16.10
2019-05-02T19:53:04.396Z,16.10
2019-05-02T19:55:35.694Z,16.10
2019-05-02T19:58:06.616Z,16.10
2019-05-02T20:00:42.307Z,16.00
2019-05-02T20:03:13.590Z,16.00
2019-05-02T20:05:42.766Z,15.90
2019-05-02T20:08:14.678Z,15.90
2019-05-02T20:10:49.415Z,15.90
2019-05-02T20:13:20.271Z,15.80
2019-05-02T20:16:04.023Z,15.80
2019-05-02T20:18:36.739Z,15.80
2019-05-02T20:21:12.231Z,15.70
2019-05-02T20:23:43.238Z,15.60
2019-05-02T20:26:15.467Z,15.60
2019-05-02T20:28:46.567Z,15.60
2019-05-02T20:31:16.721Z,15.60
2019-05-02T20:33:46.799Z,15.60
2019-05-02T20:36:17.067Z,15.60
2019-05-02T20:38:47.138Z,15.50
2019-05-02T20:41:17.314Z,15.60
2019-05-02T20:43:47.462Z,15.60
2019-05-02T20:46:17.790Z,15.50
2019-05-02T20:48:49.078Z,15.60
2019-05-02T20:51:19.303Z,15.50
2019-05-02T20:53:49.441Z,15.50
2019-05-02T20:56:19.614Z,15.50
2019-05-02T20:58:49.875Z,15.50
2019-05-02T21:01:21.581Z,15.40
2019-05-02T21:03:52.108Z,15.40
2019-05-02T21:06:38.602Z,15.40
2019-05-02T21:09:38.822Z,15.40
2019-05-02T21:12:09.084Z,15.30
2019-05-02T21:14:39.383Z,15.30
2019-05-02T21:17:09.538Z,15.30
2019-05-02T21:19:41.679Z,15.30
2019-05-02T21:22:17.573Z,15.30
2019-05-02T21:24:47.824Z,15.30
2019-05-02T21:27:17.998Z,15.30
2019-05-02T21:29:49.056Z,15.30
2019-05-02T21:32:19.271Z,15.20
2019-05-02T21:34:49.454Z,15.10
2019-05-02T21:37:19.678Z,15.00
2019-05-02T21:39:51.892Z,15.00
2019-05-02T21:42:22.559Z,15.00
2019-05-02T21:44:54.568Z,14.90
2019-05-02T21:47:24.623Z,14.80
2019-05-02T21:50:02.211Z,14.70
2019-05-02T21:52:49.886Z,14.60
2019-05-02T21:55:27.237Z,14.50
2019-05-02T21:57:57.512Z,14.50
2019-05-02T22:00:45.985Z,14.50
2019-05-02T22:03:16.311Z,14.40
2019-05-02T22:05:47.515Z,14.30
2019-05-02T22:08:17.770Z,14.30
2019-05-02T22:10:48.050Z,14.30
2019-05-02T22:13:18.211Z,14.20
2019-05-02T22:15:48.285Z,14.20
2019-05-02T22:18:18.507Z,14.20
2019-05-02T22:20:48.584Z,14.10
2019-05-02T22:23:18.829Z,14.10
2019-05-02T22:25:49.043Z,14.10
2019-05-02T22:28:19.191Z,14.00
2019-05-02T22:30:49.346Z,14.00
2019-05-02T22:33:19.561Z,13.90
2019-05-02T22:35:49.807Z,13.90
2019-05-02T22:38:27.356Z,13.80
2019-05-02T22:40:58.980Z,13.80
2019-05-02T22:43:29.067Z,13.80
2019-05-02T22:45:59.355Z,13.90
2019-05-02T22:48:29.441Z,14.00
2019-05-02T22:50:59.613Z,14.10
2019-05-02T22:53:29.833Z,14.10
2019-05-02T22:55:59.987Z,14.20
2019-05-02T22:58:30.082Z,14.20
2019-05-02T23:01:01.650Z,14.40
2019-05-02T23:03:32.723Z,14.30
2019-05-02T23:06:02.967Z,14.40
2019-05-02T23:08:33.118Z,14.40
2019-05-02T23:11:03.562Z,14.30
2019-05-02T23:13:33.806Z,14.30
2019-05-02T23:16:03.943Z,14.20
2019-05-02T23:18:33.965Z,14.20
2019-05-02T23:21:04.375Z,14.10
2019-05-02T23:23:34.595Z,14.10
2019-05-02T23:26:06.749Z,14.20
2019-05-02T23:28:38.611Z,14.20
2019-05-02T23:31:08.815Z,14.20
2019-05-02T23:33:56.599Z,14.20
2019-05-02T23:36:26.755Z,14.20
2019-05-02T23:38:57.035Z,14.30
2019-05-02T23:41:27.454Z,14.30
2019-05-02T23:43:57.859Z,14.30
2019-05-02T23:46:27.865Z,14.30
2019-05-02T23:48:58.156Z,14.20
2019-05-02T23:51:28.283Z,14.20
2019-05-02T23:53:58.521Z,14.20
2019-05-02T23:56:28.722Z,14.10
2019-05-02T23:58:58.958Z,14.10
